sensor_id;sensor_type;location;lat;lon;timestamp;pressure;altitude;pressure_sealevel;temperature;humidity
32197;BME280;18697;42.770;23.400;2023-02-01T00:02:25;95760.00;;;3.14;70.10
32197;BME280;18697;42.770;23.400;2023-02-01T00:04:50;95750.00;;;3.27;69.75
32197;BME280;18697;42.770;23.400;2023-02-01T00:07:16;95753.06;;;3.33;69.49
32197;BME280;18697;42.770;23.400;2023-02-01T00:09:41;95752.72;;;3.30;69.30
32197;BME280;18697;42.770;23.400;2023-02-01T00:12:06;95751.88;;;3.34;69.08
32197;BME280;18697;42.770;23.400;2023-02-01T00:14:32;95747.28;;;3.27;69.12
32197;BME280;18697;42.770;23.400;2023-02-01T00:17:04;95755.22;;;3.18;69.80
32197;BME280;18697;42.770;23.400;2023-02-01T00:19:30;95758.28;;;3.23;69.47
32197;BME280;18697;42.770;23.400;2023-02-01T00:21:55;95757.06;;;3.28;69.70
32197;BME280;18697;42.770;23.400;2023-02-01T00:24:21;95758.44;;;3.13;68.83
32197;BME280;18697;42.770;23.400;2023-02-01T00:26:46;95772.94;;;3.13;69.09
32197;BME280;18697;42.770;23.400;2023-02-01T00:29:14;95760.78;;;3.14;69.53
32197;BME280;18697;42.770;23.400;2023-02-01T00:31:41;95761.09;;;3.20;69.18
32197;BME280;18697;42.770;23.400;2023-02-01T00:34:07;95752.50;;;3.18;69.37
32197;BME280;18697;42.770;23.400;2023-02-01T00:36:34;95748.81;;;3.28;69.63
32197;BME280;18697;42.770;23.400;2023-02-01T00:38:59;95751.88;;;3.34;69.42
32197;BME280;18697;42.770;23.400;2023-02-01T00:41:25;95738.56;;;3.32;69.17
32197;BME280;18697;42.770;23.400;2023-02-01T00:43:50;95746.81;;;3.32;69.51
32197;BME280;18697;42.770;23.400;2023-02-01T00:46:17;95751.00;;;3.40;69.81
32197;BME280;18697;42.770;23.400;2023-02-01T00:48:43;95741.16;;;3.43;69.51
32197;BME280;18697;42.770;23.400;2023-02-01T00:51:12;95743.84;;;3.46;69.64
32197;BME280;18697;42.770;23.400;2023-02-01T00:53:37;95737.13;;;3.51;69.49
32197;BME280;18697;42.770;23.400;2023-02-01T00:56:03;95733.75;;;3.40;69.78
32197;BME280;18697;42.770;23.400;2023-02-01T00:58:30;95730.75;;;3.30;70.07
32197;BME280;18697;42.770;23.400;2023-02-01T01:01:05;95739.63;;;3.11;70.89
32197;BME280;18697;42.770;23.400;2023-02-01T01:03:32;95727.47;;;2.85;71.68
32197;BME280;18697;42.770;23.400;2023-02-01T01:05:59;95728.09;;;2.66;72.66
32197;BME280;18697;42.770;23.400;2023-02-01T01:08:24;95727.06;;;2.53;73.39
32197;BME280;18697;42.770;23.400;2023-02-01T01:10:50;95735.00;;;2.44;73.75
32197;BME280;18697;42.770;23.400;2023-02-01T01:13:15;95732.78;;;2.31;73.77
32197;BME280;18697;42.770;23.400;2023-02-01T01:15:41;95727.66;;;2.34;74.11
32197;BME280;18697;42.770;23.400;2023-02-01T01:18:07;95733.47;;;2.39;73.74
32197;BME280;18697;42.770;23.400;2023-02-01T01:20:37;95714.03;;;2.26;73.65
32197;BME280;18697;42.770;23.400;2023-02-01T01:23:04;95724.22;;;2.26;73.78
32197;BME280;18697;42.770;23.400;2023-02-01T01:25:29;95723.56;;;2.15;74.02
32197;BME280;18697;42.770;23.400;2023-02-01T01:27:55;95729.13;;;2.08;74.26
32197;BME280;18697;42.770;23.400;2023-02-01T01:30:21;95727.22;;;2.01;74.56
32197;BME280;18697;42.770;23.400;2023-02-01T01:32:46;95741.72;;;1.98;74.89
32197;BME280;18697;42.770;23.400;2023-02-01T01:35:11;95741.78;;;1.91;75.14
32197;BME280;18697;42.770;23.400;2023-02-01T01:37:37;95734.47;;;1.77;75.60
32197;BME280;18697;42.770;23.400;2023-02-01T01:40:04;95732.88;;;1.80;75.65
32197;BME280;18697;42.770;23.400;2023-02-01T01:42:30;95737.63;;;1.76;75.40
32197;BME280;18697;42.770;23.400;2023-02-01T01:45:02;95745.84;;;1.72;75.66
32197;BME280;18697;42.770;23.400;2023-02-01T01:47:37;95743.56;;;1.63;75.76
32197;BME280;18697;42.770;23.400;2023-02-01T01:50:07;95737.34;;;1.59;76.04
32197;BME280;18697;42.770;23.400;2023-02-01T01:52:34;95749.50;;;1.55;76.38
32197;BME280;18697;42.770;23.400;2023-02-01T01:55:00;95747.72;;;1.34;76.98
32197;BME280;18697;42.770;23.400;2023-02-01T01:57:31;95748.25;;;1.11;77.59
32197;BME280;18697;42.770;23.400;2023-02-01T02:00:07;95744.69;;;1.18;77.79
32197;BME280;18697;42.770;23.400;2023-02-01T02:02:33;95740.75;;;1.22;77.38
32197;BME280;18697;42.770;23.400;2023-02-01T02:05:00;95746.22;;;1.26;76.84
32197;BME280;18697;42.770;23.400;2023-02-01T02:07:29;95738.00;;;1.26;76.68
32197;BME280;18697;42.770;23.400;2023-02-01T02:09:56;95737.19;;;1.29;76.43
32197;BME280;18697;42.770;23.400;2023-02-01T02:12:22;95737.00;;;0.98;76.96
32197;BME280;18697;42.770;23.400;2023-02-01T02:14:48;95739.75;;;0.95;77.05
32197;BME280;18697;42.770;23.400;2023-02-01T02:17:32;95740.88;;;1.05;76.57
32197;BME280;18697;42.770;23.400;2023-02-01T02:23:03;95728.28;;;1.18;75.45
32197;BME280;18697;42.770;23.400;2023-02-01T02:30:55;95750.53;;;1.20;75.15
32197;BME280;18697;42.770;23.400;2023-02-01T02:45:28;95745.91;;;1.13;75.13
32197;BME280;18697;42.770;23.400;2023-02-01T02:51:05;95746.22;;;1.26;74.93
32197;BME280;18697;42.770;23.400;2023-02-01T02:56:42;95745.03;;;1.27;74.56
32197;BME280;18697;42.770;23.400;2023-02-01T02:59:27;95752.00;;;1.39;74.44
32197;BME280;18697;42.770;23.400;2023-02-01T03:02:12;95749.22;;;1.42;74.30
32197;BME280;18697;42.770;23.400;2023-02-01T03:04:57;95762.41;;;1.58;73.91
32197;BME280;18697;42.770;23.400;2023-02-01T03:19:03;95778.41;;;2.11;71.06
32197;BME280;18697;42.770;23.400;2023-02-01T03:21:39;95780.63;;;2.23;71.15
32197;BME280;18697;42.770;23.400;2023-02-01T03:26:52;95771.16;;;2.31;70.66
32197;BME280;18697;42.770;23.400;2023-02-01T03:29:22;95774.91;;;2.48;70.63
32197;BME280;18697;42.770;23.400;2023-02-01T03:31:48;95782.72;;;2.50;70.17
32197;BME280;18697;42.770;23.400;2023-02-01T03:34:14;95781.94;;;2.49;70.41
32197;BME280;18697;42.770;23.400;2023-02-01T03:36:48;95775.56;;;2.59;69.70
32197;BME280;18697;42.770;23.400;2023-02-01T03:39:25;95770.78;;;2.67;69.49
32197;BME280;18697;42.770;23.400;2023-02-01T03:42:04;95777.97;;;2.54;69.96
32197;BME280;18697;42.770;23.400;2023-02-01T03:47:17;95777.97;;;2.16;71.14
32197;BME280;18697;42.770;23.400;2023-02-01T03:50:07;95775.13;;;2.23;71.26
32197;BME280;18697;42.770;23.400;2023-02-01T03:52:39;95775.22;;;2.16;71.66
32197;BME280;18697;42.770;23.400;2023-02-01T03:55:07;95773.44;;;1.99;72.16
32197;BME280;18697;42.770;23.400;2023-02-01T03:57:37;95763.09;;;1.69;73.57
32197;BME280;18697;42.770;23.400;2023-02-01T04:00:25;95776.22;;;1.92;73.82
32197;BME280;18697;42.770;23.400;2023-02-01T04:02:52;95773.00;;;2.04;73.00
32197;BME280;18697;42.770;23.400;2023-02-01T04:05:18;95775.72;;;2.04;73.13
32197;BME280;18697;42.770;23.400;2023-02-01T04:07:43;95772.88;;;2.18;72.40
32197;BME280;18697;42.770;23.400;2023-02-01T04:10:09;95774.44;;;2.16;71.88
32197;BME280;18697;42.770;23.400;2023-02-01T04:12:36;95772.88;;;2.18;72.00
32197;BME280;18697;42.770;23.400;2023-02-01T04:15:02;95768.31;;;2.01;72.68
32197;BME280;18697;42.770;23.400;2023-02-01T04:17:28;95771.22;;;2.24;72.29
32197;BME280;18697;42.770;23.400;2023-02-01T04:19:53;95782.47;;;2.34;71.81
32197;BME280;18697;42.770;23.400;2023-02-01T04:22:19;95787.53;;;2.39;71.47
32197;BME280;18697;42.770;23.400;2023-02-01T04:24:44;95773.25;;;2.54;71.57
32197;BME280;18697;42.770;23.400;2023-02-01T04:27:09;95772.00;;;2.62;70.88
32197;BME280;18697;42.770;23.400;2023-02-01T04:29:35;95773.06;;;2.72;70.61
32197;BME280;18697;42.770;23.400;2023-02-01T04:32:00;95772.31;;;2.68;69.96
32197;BME280;18697;42.770;23.400;2023-02-01T04:34:26;95762.53;;;2.67;70.37
32197;BME280;18697;42.770;23.400;2023-02-01T04:36:51;95769.47;;;2.79;70.64
32197;BME280;18697;42.770;23.400;2023-02-01T04:39:17;95771.34;;;2.85;69.94
32197;BME280;18697;42.770;23.400;2023-02-01T04:41:43;95768.97;;;2.87;69.65
32197;BME280;18697;42.770;23.400;2023-02-01T04:44:18;95775.78;;;2.76;69.75
32197;BME280;18697;42.770;23.400;2023-02-01T04:46:45;95774.75;;;2.62;69.33
32197;BME280;18697;42.770;23.400;2023-02-01T04:49:11;95769.34;;;2.55;69.26
32197;BME280;18697;42.770;23.400;2023-02-01T04:51:37;95778.78;;;2.51;69.73
32197;BME280;18697;42.770;23.400;2023-02-01T04:54:02;95773.47;;;2.33;70.46
32197;BME280;18697;42.770;23.400;2023-02-01T04:56:28;95789.94;;;2.29;71.16
32197;BME280;18697;42.770;23.400;2023-02-01T04:58:53;95796.25;;;2.26;71.60
32197;BME280;18697;42.770;23.400;2023-02-01T05:01:19;95788.81;;;2.27;71.90
32197;BME280;18697;42.770;23.400;2023-02-01T05:03:44;95797.38;;;2.33;72.11
32197;BME280;18697;42.770;23.400;2023-02-01T05:06:09;95793.06;;;2.31;72.15
32197;BME280;18697;42.770;23.400;2023-02-01T05:08:35;95796.19;;;2.34;72.24
32197;BME280;18697;42.770;23.400;2023-02-01T05:11:00;95807.50;;;2.39;72.34
32197;BME280;18697;42.770;23.400;2023-02-01T05:13:28;95814.94;;;2.39;72.52
32197;BME280;18697;42.770;23.400;2023-02-01T05:16:13;95811.81;;;2.37;72.32
32197;BME280;18697;42.770;23.400;2023-02-01T05:18:38;95809.47;;;2.35;72.59
32197;BME280;18697;42.770;23.400;2023-02-01T05:21:04;95808.03;;;2.23;72.78
32197;BME280;18697;42.770;23.400;2023-02-01T05:23:29;95810.41;;;2.21;73.28
32197;BME280;18697;42.770;23.400;2023-02-01T05:25:59;95805.66;;;2.25;73.31
32197;BME280;18697;42.770;23.400;2023-02-01T05:28:26;95802.13;;;2.25;73.68
32197;BME280;18697;42.770;23.400;2023-02-01T05:30:51;95808.34;;;2.33;73.79
32197;BME280;18697;42.770;23.400;2023-02-01T05:33:17;95805.59;;;2.33;74.08
32197;BME280;18697;42.770;23.400;2023-02-01T05:35:42;95800.81;;;2.40;74.08
32197;BME280;18697;42.770;23.400;2023-02-01T05:38:07;95809.41;;;2.42;74.25
32197;BME280;18697;42.770;23.400;2023-02-01T05:40:33;95810.25;;;2.36;74.91
32197;BME280;18697;42.770;23.400;2023-02-01T05:42:58;95806.78;;;2.31;74.65
32197;BME280;18697;42.770;23.400;2023-02-01T05:45:23;95808.78;;;2.27;74.87
32197;BME280;18697;42.770;23.400;2023-02-01T05:47:49;95805.66;;;2.25;75.13
32197;BME280;18697;42.770;23.400;2023-02-01T05:50:16;95809.31;;;2.12;75.67
32197;BME280;18697;42.770;23.400;2023-02-01T05:52:41;95805.81;;;2.11;76.00
32197;BME280;18697;42.770;23.400;2023-02-01T05:55:07;95812.84;;;2.12;76.21
32197;BME280;18697;42.770;23.400;2023-02-01T05:57:32;95811.66;;;2.13;76.02
32197;BME280;18697;42.770;23.400;2023-02-01T05:59:58;95815.63;;;2.09;76.12
32197;BME280;18697;42.770;23.400;2023-02-01T06:02:23;95816.03;;;2.07;76.27
32197;BME280;18697;42.770;23.400;2023-02-01T06:04:49;95821.44;;;2.14;76.33
32197;BME280;18697;42.770;23.400;2023-02-01T06:07:15;95809.28;;;2.15;76.41
32197;BME280;18697;42.770;23.400;2023-02-01T06:09:40;95823.66;;;2.26;75.92
32197;BME280;18697;42.770;23.400;2023-02-01T06:12:06;95822.94;;;2.22;75.70
32197;BME280;18697;42.770;23.400;2023-02-01T06:14:31;95817.41;;;2.26;75.55
32197;BME280;18697;42.770;23.400;2023-02-01T06:16:56;95818.91;;;2.30;75.32
32197;BME280;18697;42.770;23.400;2023-02-01T06:19:22;95828.34;;;2.26;74.94
32197;BME280;18697;42.770;23.400;2023-02-01T06:21:48;95823.25;;;2.28;74.68
32197;BME280;18697;42.770;23.400;2023-02-01T06:24:14;95829.91;;;2.27;75.07
32197;BME280;18697;42.770;23.400;2023-02-01T06:26:40;95828.25;;;2.37;74.77
32197;BME280;18697;42.770;23.400;2023-02-01T06:29:06;95835.31;;;2.38;74.28
32197;BME280;18697;42.770;23.400;2023-02-01T06:31:32;95827.78;;;2.45;74.17
32197;BME280;18697;42.770;23.400;2023-02-01T06:33:58;95832.91;;;2.43;73.81
32197;BME280;18697;42.770;23.400;2023-02-01T06:36:23;95836.78;;;2.46;73.50
32197;BME280;18697;42.770;23.400;2023-02-01T06:38:49;95827.34;;;2.50;73.82
32197;BME280;18697;42.770;23.400;2023-02-01T06:41:14;95836.00;;;2.49;73.87
32197;BME280;18697;42.770;23.400;2023-02-01T06:43:40;95837.56;;;2.46;73.94
32197;BME280;18697;42.770;23.400;2023-02-01T06:46:08;95834.47;;;2.44;73.63
32197;BME280;18697;42.770;23.400;2023-02-01T06:48:34;95835.66;;;2.43;73.62
32197;BME280;18697;42.770;23.400;2023-02-01T06:51:00;95837.13;;;2.51;73.56
32197;BME280;18697;42.770;23.400;2023-02-01T06:53:26;95839.06;;;2.54;73.15
32197;BME280;18697;42.770;23.400;2023-02-01T06:56:02;95840.22;;;2.57;72.95
32197;BME280;18697;42.770;23.400;2023-02-01T06:58:28;95848.78;;;2.62;72.79
32197;BME280;18697;42.770;23.400;2023-02-01T07:00:53;95845.25;;;2.62;72.83
32197;BME280;18697;42.770;23.400;2023-02-01T07:03:19;95856.19;;;2.66;72.90
32197;BME280;18697;42.770;23.400;2023-02-01T07:05:44;95857.31;;;2.72;72.59
32197;BME280;18697;42.770;23.400;2023-02-01T07:08:10;95864.34;;;2.73;72.25
32197;BME280;18697;42.770;23.400;2023-02-01T07:10:35;95875.69;;;2.75;72.17
32197;BME280;18697;42.770;23.400;2023-02-01T07:13:01;95874.97;;;2.71;71.87
32197;BME280;18697;42.770;23.400;2023-02-01T07:15:26;95873.06;;;2.64;71.91
32197;BME280;18697;42.770;23.400;2023-02-01T07:17:54;95876.16;;;2.70;71.99
32197;BME280;18697;42.770;23.400;2023-02-01T07:20:20;95870.31;;;2.64;71.80
32197;BME280;18697;42.770;23.400;2023-02-01T07:22:45;95880.13;;;2.61;72.11
32197;BME280;18697;42.770;23.400;2023-02-01T07:25:11;95882.56;;;2.52;72.31
32197;BME280;18697;42.770;23.400;2023-02-01T07:27:37;95885.72;;;2.51;72.62
32197;BME280;18697;42.770;23.400;2023-02-01T07:30:04;95883.31;;;2.56;72.53
32197;BME280;18697;42.770;23.400;2023-02-01T07:32:30;95889.94;;;2.59;72.52
32197;BME280;18697;42.770;23.400;2023-02-01T07:34:56;95890.69;;;2.63;72.62
32197;BME280;18697;42.770;23.400;2023-02-01T07:37:22;95890.22;;;2.72;72.36
32197;BME280;18697;42.770;23.400;2023-02-01T07:39:51;95889.38;;;2.78;72.15
32197;BME280;18697;42.770;23.400;2023-02-01T07:42:17;95898.69;;;2.88;71.86
32197;BME280;18697;42.770;23.400;2023-02-01T07:44:42;95894.41;;;2.87;71.75
32197;BME280;18697;42.770;23.400;2023-02-01T07:47:08;95900.59;;;2.94;71.85
32197;BME280;18697;42.770;23.400;2023-02-01T07:49:33;95893.50;;;2.97;71.65
32197;BME280;18697;42.770;23.400;2023-02-01T07:51:59;95904.38;;;3.04;71.04
32197;BME280;18697;42.770;23.400;2023-02-01T07:54:24;95895.41;;;3.00;70.91
32197;BME280;18697;42.770;23.400;2023-02-01T07:56:49;95905.97;;;3.02;70.82
32197;BME280;18697;42.770;23.400;2023-02-01T07:59:15;95915.00;;;3.02;70.84
32197;BME280;18697;42.770;23.400;2023-02-01T08:01:41;95911.47;;;3.02;70.99
32197;BME280;18697;42.770;23.400;2023-02-01T08:04:09;95914.94;;;3.06;70.76
32197;BME280;18697;42.770;23.400;2023-02-01T08:06:35;95925.56;;;3.04;70.64
32197;BME280;18697;42.770;23.400;2023-02-01T08:12:01;95921.50;;;3.15;70.53
32197;BME280;18697;42.770;23.400;2023-02-01T08:14:26;95907.09;;;3.08;70.08
32197;BME280;18697;42.770;23.400;2023-02-01T08:16:52;95911.84;;;3.04;70.24
32197;BME280;18697;42.770;23.400;2023-02-01T08:19:17;95915.34;;;3.04;70.20
32197;BME280;18697;42.770;23.400;2023-02-01T08:21:42;95913.75;;;3.07;70.35
32197;BME280;18697;42.770;23.400;2023-02-01T08:24:08;95928.16;;;3.18;70.47
32197;BME280;18697;42.770;23.400;2023-02-01T08:26:34;95922.22;;;3.23;70.07
32197;BME280;18697;42.770;23.400;2023-02-01T08:29:03;95935.09;;;3.29;69.94
32197;BME280;18697;42.770;23.400;2023-02-01T08:31:29;95921.69;;;3.35;69.38
32197;BME280;18697;42.770;23.400;2023-02-01T08:33:58;95934.97;;;3.40;69.04
32197;BME280;18697;42.770;23.400;2023-02-01T08:36:25;95927.09;;;3.42;68.36
32197;BME280;18697;42.770;23.400;2023-02-01T08:38:51;95937.63;;;3.47;68.62
32197;BME280;18697;42.770;23.400;2023-02-01T08:41:20;95925.91;;;3.43;68.50
32197;BME280;18697;42.770;23.400;2023-02-01T08:43:45;95930.19;;;3.48;68.61
32197;BME280;18697;42.770;23.400;2023-02-01T08:46:11;95923.22;;;3.40;68.61
32197;BME280;18697;42.770;23.400;2023-02-01T08:48:38;95920.38;;;3.47;68.80
32197;BME280;18697;42.770;23.400;2023-02-01T08:51:11;95922.31;;;3.50;68.56
32197;BME280;18697;42.770;23.400;2023-02-01T08:53:38;95930.59;;;3.46;68.05
32197;BME280;18697;42.770;23.400;2023-02-01T08:56:06;95920.34;;;3.50;68.15
32197;BME280;18697;42.770;23.400;2023-02-01T08:58:32;95927.03;;;3.49;68.08
32197;BME280;18697;42.770;23.400;2023-02-01T09:01:05;95934.06;;;3.50;68.04
32197;BME280;18697;42.770;23.400;2023-02-01T09:03:31;95936.78;;;3.54;67.78
32197;BME280;18697;42.770;23.400;2023-02-01T09:06:06;95927.38;;;3.51;67.73
32197;BME280;18697;42.770;23.400;2023-02-01T09:08:32;95924.56;;;3.58;67.41
32197;BME280;18697;42.770;23.400;2023-02-01T09:10:59;95927.31;;;3.58;67.39
32197;BME280;18697;42.770;23.400;2023-02-01T09:13:25;95935.13;;;3.60;67.29
32197;BME280;18697;42.770;23.400;2023-02-01T09:15:51;95931.81;;;3.72;67.60
32197;BME280;18697;42.770;23.400;2023-02-01T09:18:17;95923.44;;;3.83;67.42
32197;BME280;18697;42.770;23.400;2023-02-01T09:20:42;95923.72;;;3.92;67.00
32197;BME280;18697;42.770;23.400;2023-02-01T09:23:07;95928.34;;;3.99;66.92
32197;BME280;18697;42.770;23.400;2023-02-01T09:25:33;95926.69;;;4.05;66.80
32197;BME280;18697;42.770;23.400;2023-02-01T09:27:58;95924.28;;;4.07;66.24
32197;BME280;18697;42.770;23.400;2023-02-01T09:30:23;95923.94;;;4.05;65.03
32197;BME280;18697;42.770;23.400;2023-02-01T09:32:49;95916.56;;;3.98;65.28
32197;BME280;18697;42.770;23.400;2023-02-01T09:35:14;95923.97;;;4.01;65.21
32197;BME280;18697;42.770;23.400;2023-02-01T09:37:40;95918.16;;;3.95;65.41
32197;BME280;18697;42.770;23.400;2023-02-01T09:40:05;95910.69;;;3.96;64.92
32197;BME280;18697;42.770;23.400;2023-02-01T09:47:57;95897.78;;;4.20;64.16
32197;BME280;18697;42.770;23.400;2023-02-01T09:50:49;95900.38;;;4.31;64.12
32197;BME280;18697;42.770;23.400;2023-02-01T09:55:49;95878.63;;;4.40;63.48
32197;BME280;18697;42.770;23.400;2023-02-01T09:58:30;95887.47;;;4.51;63.18
32197;BME280;18697;42.770;23.400;2023-02-01T10:01:00;95881.13;;;4.54;63.35
32197;BME280;18697;42.770;23.400;2023-02-01T10:03:32;95880.66;;;4.59;63.12
32197;BME280;18697;42.770;23.400;2023-02-01T10:20:29;95855.53;;;5.59;60.15
32197;BME280;18697;42.770;23.400;2023-02-01T10:23:25;95849.63;;;6.13;58.86
32197;BME280;18697;42.770;23.400;2023-02-01T10:25:55;95837.22;;;6.54;57.95
32197;BME280;18697;42.770;23.400;2023-02-01T10:28:22;95836.66;;;6.75;56.21
32197;BME280;18697;42.770;23.400;2023-02-01T10:30:53;95833.53;;;6.73;56.33
32197;BME280;18697;42.770;23.400;2023-02-01T10:33:30;95832.75;;;6.89;55.47
32197;BME280;18697;42.770;23.400;2023-02-01T10:36:13;95825.03;;;6.97;54.61
32197;BME280;18697;42.770;23.400;2023-02-01T10:38:42;95819.75;;;7.02;54.43
32197;BME280;18697;42.770;23.400;2023-02-01T10:41:17;95816.94;;;7.18;54.64
32197;BME280;18697;42.770;23.400;2023-02-01T10:43:47;95808.72;;;7.31;53.43
32197;BME280;18697;42.770;23.400;2023-02-01T10:46:13;95795.91;;;7.37;53.01
32197;BME280;18697;42.770;23.400;2023-02-01T10:48:38;95790.78;;;7.23;52.69
32197;BME280;18697;42.770;23.400;2023-02-01T10:51:12;95803.25;;;7.15;53.51
32197;BME280;18697;42.770;23.400;2023-02-01T10:53:52;95803.00;;;7.09;52.99
32197;BME280;18697;42.770;23.400;2023-02-01T10:56:26;95801.16;;;7.19;53.08
32197;BME280;18697;42.770;23.400;2023-02-01T10:59:00;95793.19;;;7.21;53.69
32197;BME280;18697;42.770;23.400;2023-02-01T11:01:37;95795.16;;;7.08;53.14
32197;BME280;18697;42.770;23.400;2023-02-01T11:04:16;95803.56;;;7.17;53.45
32197;BME280;18697;42.770;23.400;2023-02-01T11:06:45;95810.03;;;7.27;53.32
32197;BME280;18697;42.770;23.400;2023-02-01T11:09:16;95799.19;;;7.32;53.23
32197;BME280;18697;42.770;23.400;2023-02-01T11:14:19;95788.84;;;7.62;53.74
32197;BME280;18697;42.770;23.400;2023-02-01T11:16:49;95793.28;;;7.72;53.38
32197;BME280;18697;42.770;23.400;2023-02-01T11:19:16;95785.31;;;7.99;53.69
32197;BME280;18697;42.770;23.400;2023-02-01T11:21:43;95786.53;;;7.98;51.41
32197;BME280;18697;42.770;23.400;2023-02-01T11:24:23;95779.09;;;7.57;50.37
32197;BME280;18697;42.770;23.400;2023-02-01T11:26:50;95784.41;;;7.51;51.21
32197;BME280;18697;42.770;23.400;2023-02-01T11:29:18;95777.88;;;7.45;51.69
32197;BME280;18697;42.770;23.400;2023-02-01T11:31:48;95780.66;;;7.04;51.36
32197;BME280;18697;42.770;23.400;2023-02-01T11:34:25;95775.56;;;6.73;52.12
32197;BME280;18697;42.770;23.400;2023-02-01T11:36:55;95772.00;;;6.60;53.87
32197;BME280;18697;42.770;23.400;2023-02-01T11:39:31;95774.44;;;6.42;54.03
32197;BME280;18697;42.770;23.400;2023-02-01T11:42:03;95774.03;;;6.27;54.67
32197;BME280;18697;42.770;23.400;2023-02-01T11:44:43;95764.28;;;6.39;53.98
32197;BME280;18697;42.770;23.400;2023-02-01T11:50:34;95741.25;;;7.16;54.36
32197;BME280;18697;42.770;23.400;2023-02-01T11:53:09;95734.34;;;7.37;52.46
32197;BME280;18697;42.770;23.400;2023-02-01T11:55:56;95739.63;;;7.31;51.71
32197;BME280;18697;42.770;23.400;2023-02-01T12:06:57;95733.44;;;7.90;51.50
32197;BME280;18697;42.770;23.400;2023-02-01T12:09:39;95735.44;;;7.90;50.81
32197;BME280;18697;42.770;23.400;2023-02-01T12:17:54;95718.75;;;7.81;51.11
32197;BME280;18697;42.770;23.400;2023-02-01T12:23:20;95722.94;;;7.73;51.42
32197;BME280;18697;42.770;23.400;2023-02-01T12:29:13;95728.13;;;7.83;50.86
32197;BME280;18697;42.770;23.400;2023-02-01T12:42:25;95710.44;;;8.41;51.13
32197;BME280;18697;42.770;23.400;2023-02-01T12:44:55;95712.66;;;8.46;50.13
32197;BME280;18697;42.770;23.400;2023-02-01T12:47:31;95711.34;;;8.38;49.89
32197;BME280;18697;42.770;23.400;2023-02-01T12:52:47;95712.06;;;8.04;49.18
32197;BME280;18697;42.770;23.400;2023-02-01T12:55:36;95698.81;;;7.86;49.99
32197;BME280;18697;42.770;23.400;2023-02-01T12:58:14;95696.69;;;8.03;51.98
32197;BME280;18697;42.770;23.400;2023-02-01T13:00:49;95699.50;;;8.24;51.55
32197;BME280;18697;42.770;23.400;2023-02-01T13:03:26;95702.47;;;8.43;50.29
32197;BME280;18697;42.770;23.400;2023-02-01T13:06:01;95701.66;;;8.55;50.14
32197;BME280;18697;42.770;23.400;2023-02-01T13:08:56;95700.56;;;8.74;47.84
32197;BME280;18697;42.770;23.400;2023-02-01T13:11:38;95699.69;;;8.77;48.76
32197;BME280;18697;42.770;23.400;2023-02-01T13:17:12;95703.53;;;8.58;48.20
32197;BME280;18697;42.770;23.400;2023-02-01T13:19:59;95696.31;;;8.61;49.02
32197;BME280;18697;42.770;23.400;2023-02-01T13:22:29;95706.00;;;8.31;48.55
32197;BME280;18697;42.770;23.400;2023-02-01T13:25:30;95696.47;;;8.10;48.43
32197;BME280;18697;42.770;23.400;2023-02-01T13:28:03;95696.16;;;7.95;48.76
32197;BME280;18697;42.770;23.400;2023-02-01T13:41:57;95704.66;;;8.48;49.15
32197;BME280;18697;42.770;23.400;2023-02-01T13:44:38;95695.03;;;8.74;48.59
32197;BME280;18697;42.770;23.400;2023-02-01T13:47:22;95695.47;;;8.95;48.24
32197;BME280;18697;42.770;23.400;2023-02-01T13:49:49;95706.03;;;9.09;49.17
32197;BME280;18697;42.770;23.400;2023-02-01T13:55:01;95703.56;;;8.45;48.17
32197;BME280;18697;42.770;23.400;2023-02-01T13:57:37;95700.50;;;8.18;49.54
32197;BME280;18697;42.770;23.400;2023-02-01T14:10:48;95699.50;;;8.37;48.90
32197;BME280;18697;42.770;23.400;2023-02-01T14:13:40;95693.03;;;8.53;49.28
32197;BME280;18697;42.770;23.400;2023-02-01T14:29:03;95678.88;;;9.26;46.73
32197;BME280;18697;42.770;23.400;2023-02-01T14:32:00;95682.69;;;9.19;46.40
32197;BME280;18697;42.770;23.400;2023-02-01T14:37:10;95679.00;;;9.22;46.12
32197;BME280;18697;42.770;23.400;2023-02-01T14:42:28;95681.31;;;9.23;44.96
32197;BME280;18697;42.770;23.400;2023-02-01T14:44:53;95678.59;;;9.02;46.47
32197;BME280;18697;42.770;23.400;2023-02-01T14:49:59;95676.84;;;8.95;45.93
32197;BME280;18697;42.770;23.400;2023-02-01T14:52:38;95693.75;;;8.88;46.84
32197;BME280;18697;42.770;23.400;2023-02-01T14:55:33;95681.50;;;8.76;48.02
32197;BME280;18697;42.770;23.400;2023-02-01T14:58:02;95687.81;;;8.77;48.55
32197;BME280;18697;42.770;23.400;2023-02-01T15:00:30;95692.41;;;8.71;48.99
32197;BME280;18697;42.770;23.400;2023-02-01T15:05:59;95692.88;;;8.35;48.79
32197;BME280;18697;42.770;23.400;2023-02-01T15:08:33;95678.88;;;8.04;49.74
32197;BME280;18697;42.770;23.400;2023-02-01T15:11:04;95687.53;;;7.80;51.14
32197;BME280;18697;42.770;23.400;2023-02-01T15:13:32;95701.94;;;7.63;52.42
32197;BME280;18697;42.770;23.400;2023-02-01T15:16:14;95701.41;;;7.42;52.53
32197;BME280;18697;42.770;23.400;2023-02-01T15:18:41;95710.13;;;7.28;53.34
32197;BME280;18697;42.770;23.400;2023-02-01T15:21:18;95703.81;;;7.15;53.96
32197;BME280;18697;42.770;23.400;2023-02-01T15:23:44;95710.84;;;7.03;53.71
32197;BME280;18697;42.770;23.400;2023-02-01T15:26:25;95703.88;;;6.99;54.21
32197;BME280;18697;42.770;23.400;2023-02-01T15:28:50;95701.66;;;6.93;54.14
32197;BME280;18697;42.770;23.400;2023-02-01T15:31:37;95704.84;;;6.92;54.31
32197;BME280;18697;42.770;23.400;2023-02-01T15:34:03;95701.97;;;6.83;54.59
32197;BME280;18697;42.770;23.400;2023-02-01T15:36:29;95709.81;;;6.84;54.68
32197;BME280;18697;42.770;23.400;2023-02-01T15:41:38;95713.09;;;6.79;55.34
32197;BME280;18697;42.770;23.400;2023-02-01T15:44:11;95720.16;;;6.80;55.42
32197;BME280;18697;42.770;23.400;2023-02-01T15:46:42;95717.75;;;6.82;55.47
32197;BME280;18697;42.770;23.400;2023-02-01T15:49:19;95722.06;;;6.83;55.85
32197;BME280;18697;42.770;23.400;2023-02-01T15:51:46;95730.69;;;6.85;55.67
32197;BME280;18697;42.770;23.400;2023-02-01T15:54:17;95722.41;;;6.85;55.46
32197;BME280;18697;42.770;23.400;2023-02-01T15:56:52;95719.31;;;6.83;55.17